createdAt,value
2023-05-08T00:01:31.160Z,99.90
2023-05-08T00:03:58.439Z,99.90
2023-05-08T00:06:27.502Z,99.90
2023-05-08T00:08:55.682Z,99.90
2023-05-08T00:11:22.849Z,99.90
2023-05-08T00:13:49.751Z,99.90
2023-05-08T00:16:16.714Z,99.90
2023-05-08T00:18:43.623Z,99.90
2023-05-08T00:21:10.609Z,99.90
2023-05-08T00:23:37.491Z,99.90
2023-05-08T00:26:04.536Z,99.90
2023-05-08T00:28:31.581Z,99.90
2023-05-08T00:31:02.012Z,99.90
2023-05-08T00:33:29.087Z,99.90
2023-05-08T00:36:04.058Z,99.90
2023-05-08T00:38:34.919Z,99.90
2023-05-08T00:41:02.998Z,99.90
2023-05-08T00:43:29.990Z,99.90
2023-05-08T00:46:01.200Z,99.90
2023-05-08T00:48:32.232Z,99.90
2023-05-08T00:51:00.896Z,99.90
2023-05-08T00:53:30.941Z,99.90
2023-05-08T00:55:58.723Z,99.90
2023-05-08T00:58:27.624Z,99.90
2023-05-08T01:00:57.342Z,99.90
2023-05-08T01:03:25.459Z,99.90
2023-05-08T01:05:53.068Z,99.90
2023-05-08T01:08:20.003Z,99.90
2023-05-08T01:11:27.992Z,99.90
2023-05-08T01:14:37.482Z,99.90
2023-05-08T01:17:23.080Z,99.90
2023-05-08T01:20:10.066Z,99.90
2023-05-08T01:23:08.391Z,99.90
2023-05-08T01:25:59.616Z,99.90
2023-05-08T01:28:54.566Z,99.90
2023-05-08T01:32:16.033Z,99.90
2023-05-08T01:35:13.622Z,99.90
2023-05-08T01:38:09.741Z,99.90
2023-05-08T01:40:51.885Z,99.90
2023-05-08T01:43:43.065Z,99.90
2023-05-08T01:46:19.565Z,99.90
2023-05-08T01:48:56.256Z,99.90
2023-05-08T01:51:28.668Z,99.90
2023-05-08T01:54:09.448Z,99.90
2023-05-08T01:56:40.258Z,99.90
2023-05-08T01:59:10.424Z,99.90
2023-05-08T02:01:39.363Z,99.90
2023-05-08T02:04:08.420Z,99.90
2023-05-08T02:06:38.816Z,99.90
2023-05-08T02:09:10.723Z,99.90
2023-05-08T02:11:42.563Z,99.90
2023-05-08T02:14:12.658Z,99.90
2023-05-08T02:16:43.300Z,99.90
2023-05-08T02:19:11.985Z,99.90
2023-05-08T02:21:40.797Z,99.90
2023-05-08T02:24:09.658Z,99.90
2023-05-08T02:26:41.299Z,99.90
2023-05-08T02:29:09.332Z,99.90
2023-05-08T02:31:38.308Z,99.90
2023-05-08T02:34:08.445Z,99.90
2023-05-08T02:36:38.177Z,99.90
2023-05-08T02:39:08.496Z,99.90
2023-05-08T02:41:38.701Z,99.90
2023-05-08T02:44:06.437Z,99.90
2023-05-08T02:46:54.906Z,99.90
2023-05-08T02:49:30.388Z,99.90
2023-05-08T02:52:17.192Z,99.90
2023-05-08T02:54:57.168Z,99.90
2023-05-08T02:57:42.480Z,99.90
2023-05-08T03:00:22.361Z,99.90
2023-05-08T03:03:05.084Z,99.90
2023-05-08T03:05:36.997Z,99.90
2023-05-08T03:08:13.871Z,99.90
2023-05-08T03:10:46.655Z,99.90
2023-05-08T03:13:16.882Z,99.90
2023-05-08T03:15:56.052Z,99.90
2023-05-08T03:18:34.827Z,99.90
2023-05-08T03:21:06.304Z,99.90
2023-05-08T03:23:36.011Z,99.90
2023-05-08T03:26:04.650Z,99.90
2023-05-08T03:28:32.938Z,99.90
2023-05-08T03:31:01.957Z,99.90
2023-05-08T03:33:30.622Z,99.90
2023-05-08T03:35:59.528Z,99.90
2023-05-08T03:38:26.856Z,99.90
2023-05-08T03:40:54.172Z,99.90
2023-05-08T03:43:23.082Z,99.90
2023-05-08T03:45:51.259Z,99.90
2023-05-08T03:48:20.068Z,99.90
2023-05-08T03:50:48.169Z,99.90
2023-05-08T03:53:15.281Z,99.90
2023-05-08T03:55:42.711Z,99.90
2023-05-08T03:59:04.273Z,99.90
2023-05-08T04:01:40.855Z,99.90
2023-05-08T04:04:33.716Z,99.90
2023-05-08T04:07:15.714Z,99.90
2023-05-08T04:10:21.543Z,99.90
2023-05-08T04:13:10.725Z,99.90
2023-05-08T04:16:12.023Z,99.90
2023-05-08T04:18:47.842Z,99.90
2023-05-08T04:21:23.186Z,99.90
2023-05-08T04:23:53.354Z,99.90
2023-05-08T04:26:20.636Z,99.90
2023-05-08T04:28:49.392Z,99.90
2023-05-08T04:31:19.343Z,99.90
2023-05-08T04:33:46.910Z,99.90
2023-05-08T04:36:14.722Z,99.90
2023-05-08T04:38:44.218Z,99.90
2023-05-08T04:41:12.027Z,99.90
2023-05-08T04:43:39.214Z,99.90
2023-05-08T04:46:07.832Z,99.90
2023-05-08T04:48:34.794Z,99.90
2023-05-08T04:51:02.294Z,99.90
2023-05-08T04:53:29.308Z,99.90
2023-05-08T04:55:57.588Z,99.90
2023-05-08T04:58:24.818Z,99.90
2023-05-08T05:00:52.019Z,99.90
2023-05-08T05:03:19.377Z,99.90
2023-05-08T05:05:46.356Z,99.90
2023-05-08T05:08:13.554Z,99.90
2023-05-08T05:10:40.822Z,99.90
2023-05-08T05:13:08.201Z,99.90
2023-05-08T05:15:35.258Z,99.90
2023-05-08T05:18:02.186Z,99.90
2023-05-08T05:20:29.729Z,99.90
2023-05-08T05:22:57.609Z,99.90
2023-05-08T05:25:25.569Z,99.90
2023-05-08T05:27:52.583Z,99.90
2023-05-08T05:30:20.124Z,99.90
2023-05-08T05:32:47.201Z,99.90
2023-05-08T05:35:14.543Z,99.90
2023-05-08T05:37:41.589Z,99.90
2023-05-08T05:40:10.629Z,99.90
2023-05-08T05:42:37.972Z,99.90
2023-05-08T05:45:05.570Z,99.90
2023-05-08T05:47:33.243Z,99.90
2023-05-08T05:50:03.333Z,99.90
2023-05-08T05:52:30.575Z,99.90
2023-05-08T05:54:57.825Z,99.90
2023-05-08T05:57:24.908Z,99.90
2023-05-08T05:59:53.185Z,99.90
2023-05-08T06:02:21.731Z,99.90
2023-05-08T06:04:50.301Z,99.90
2023-05-08T06:07:17.288Z,99.90
2023-05-08T06:09:44.145Z,99.90
2023-05-08T06:12:11.979Z,99.90
2023-05-08T06:14:39.078Z,99.90
2023-05-08T06:17:06.660Z,99.90
2023-05-08T06:19:33.552Z,99.90
2023-05-08T06:22:00.489Z,99.90
2023-05-08T06:24:27.729Z,99.90
2023-05-08T06:26:54.562Z,99.90
2023-05-08T06:29:22.362Z,99.90
2023-05-08T06:31:49.192Z,99.90
2023-05-08T06:34:16.124Z,99.90
2023-05-08T06:36:42.958Z,99.90
2023-05-08T06:39:09.862Z,99.90
2023-05-08T06:41:36.869Z,99.90
2023-05-08T06:44:03.892Z,99.90
2023-05-08T06:46:33.411Z,99.90
2023-05-08T06:49:00.583Z,99.90
2023-05-08T06:51:27.630Z,99.90
2023-05-08T06:53:54.544Z,99.90
2023-05-08T06:56:22.725Z,99.90
2023-05-08T06:59:00.618Z,99.90
2023-05-08T07:01:34.567Z,99.90
2023-05-08T07:04:01.416Z,99.90
2023-05-08T07:06:28.537Z,99.90
2023-05-08T07:08:55.881Z,99.90
2023-05-08T07:11:22.915Z,99.90
2023-05-08T07:13:49.949Z,99.90
2023-05-08T07:16:17.169Z,99.90
2023-05-08T07:18:44.240Z,99.90
2023-05-08T07:21:11.498Z,99.90
2023-05-08T07:23:38.405Z,99.90
2023-05-08T07:26:05.245Z,99.90
2023-05-08T07:28:32.128Z,99.90
2023-05-08T07:30:58.960Z,99.90
2023-05-08T07:33:25.953Z,99.90
2023-05-08T07:35:52.823Z,99.90
2023-05-08T07:38:19.687Z,99.90
2023-05-08T07:40:46.593Z,99.90
2023-05-08T07:43:15.024Z,99.90
2023-05-08T07:45:42.087Z,99.90
2023-05-08T07:48:09.324Z,99.90
2023-05-08T07:50:36.412Z,99.90
2023-05-08T07:53:03.393Z,99.90
2023-05-08T07:55:30.250Z,99.90
2023-05-08T07:57:57.067Z,99.90
2023-05-08T08:00:24.232Z,99.90
2023-05-08T08:02:51.364Z,99.90
2023-05-08T08:05:18.358Z,99.90
2023-05-08T08:07:45.268Z,99.90
2023-05-08T08:10:12.557Z,99.90
2023-05-08T08:12:39.767Z,99.90
2023-05-08T08:15:07.757Z,99.90
2023-05-08T08:17:34.733Z,99.90
2023-05-08T08:20:01.635Z,99.90
2023-05-08T08:22:28.691Z,99.90
2023-05-08T08:24:56.787Z,99.90
2023-05-08T08:27:24.053Z,99.90
2023-05-08T08:29:58.528Z,99.90
2023-05-08T08:32:31.776Z,99.90
2023-05-08T08:34:58.750Z,99.90
2023-05-08T08:37:26.237Z,99.90
2023-05-08T08:39:53.853Z,99.90
2023-05-08T08:42:20.820Z,99.90
2023-05-08T08:44:47.724Z,99.90
2023-05-08T08:47:18.513Z,99.90
2023-05-08T08:49:50.981Z,99.90
2023-05-08T08:52:56.161Z,99.90
2023-05-08T08:55:25.411Z,99.90
2023-05-08T08:58:25.537Z,99.90
2023-05-08T09:00:55.090Z,99.90
2023-05-08T09:03:22.325Z,99.90
2023-05-08T09:05:49.826Z,99.90
2023-05-08T09:08:18.825Z,99.90
2023-05-08T09:10:46.972Z,99.90
2023-05-08T09:13:13.931Z,99.90
2023-05-08T09:15:40.864Z,99.90
2023-05-08T09:18:07.772Z,99.90
2023-05-08T09:20:35.519Z,99.90
2023-05-08T09:23:04.963Z,99.90
2023-05-08T09:25:46.508Z,99.90
2023-05-08T09:28:22.000Z,99.90
2023-05-08T09:30:59.961Z,99.90
2023-05-08T09:33:29.904Z,99.90
2023-05-08T09:35:57.884Z,99.90
2023-05-08T09:38:41.973Z,99.90
2023-05-08T09:41:16.657Z,99.90
2023-05-08T09:43:59.651Z,99.90
2023-05-08T09:46:27.491Z,99.90
2023-05-08T09:48:57.943Z,99.90
2023-05-08T09:51:27.998Z,99.90
2023-05-08T09:53:57.829Z,99.90
2023-05-08T09:56:35.598Z,99.90
2023-05-08T09:59:04.740Z,99.90
2023-05-08T10:01:36.887Z,99.90
2023-05-08T10:04:05.870Z,99.90
2023-05-08T10:06:33.384Z,99.90
2023-05-08T10:09:14.807Z,99.90
2023-05-08T10:11:51.971Z,99.90
2023-05-08T10:14:20.424Z,99.90
2023-05-08T10:16:54.566Z,99.90
2023-05-08T10:19:28.406Z,99.90
2023-05-08T10:21:59.248Z,99.90
2023-05-08T10:24:33.246Z,99.90
2023-05-08T10:27:19.472Z,99.90
2023-05-08T10:29:54.023Z,99.90
2023-05-08T10:32:24.309Z,99.90
2023-05-08T10:35:00.525Z,99.90
2023-05-08T10:37:30.205Z,99.90
2023-05-08T10:39:58.764Z,99.90
2023-05-08T10:42:27.614Z,99.60
2023-05-08T10:44:55.468Z,94.90
2023-05-08T10:47:33.286Z,93.10
2023-05-08T10:50:09.305Z,93.10
2023-05-08T10:53:02.527Z,91.10
2023-05-08T10:55:33.622Z,92.80
2023-05-08T10:58:14.861Z,93.20
2023-05-08T11:00:59.932Z,92.40
2023-05-08T11:03:32.729Z,92.00
2023-05-08T11:06:01.971Z,93.00
2023-05-08T11:08:31.178Z,91.50
2023-05-08T11:11:01.802Z,88.70
2023-05-08T11:13:34.077Z,90.80
2023-05-08T11:16:01.360Z,88.60
2023-05-08T11:18:41.802Z,85.20
2023-05-08T11:21:23.873Z,87.50
2023-05-08T11:23:58.002Z,91.50
2023-05-08T11:26:42.210Z,91.60
2023-05-08T11:29:18.356Z,93.20
2023-05-08T11:31:53.073Z,88.40
2023-05-08T11:34:41.819Z,87.60
2023-05-08T11:37:23.919Z,86.60
2023-05-08T11:39:51.092Z,85.20
2023-05-08T11:42:27.233Z,78.90
2023-05-08T11:45:09.678Z,81.30
2023-05-08T11:47:45.183Z,79.00
2023-05-08T11:50:13.994Z,81.30
2023-05-08T11:52:42.940Z,77.10
2023-05-08T11:55:14.804Z,81.10
2023-05-08T11:57:41.678Z,79.00
2023-05-08T12:00:11.483Z,79.10
2023-05-08T12:02:45.840Z,78.20
2023-05-08T12:05:12.919Z,78.60
2023-05-08T12:07:47.175Z,79.10
2023-05-08T12:10:16.150Z,78.40
2023-05-08T12:12:44.959Z,80.60
2023-05-08T12:15:14.894Z,80.70
2023-05-08T12:17:42.771Z,75.90
2023-05-08T12:20:18.295Z,81.10
2023-05-08T12:22:53.580Z,79.60
2023-05-08T12:25:20.848Z,80.20
2023-05-08T12:27:47.990Z,85.80
2023-05-08T12:30:16.165Z,90.80
2023-05-08T12:32:44.557Z,91.10
2023-05-08T12:35:13.070Z,90.20
2023-05-08T12:37:40.530Z,89.80
2023-05-08T12:40:22.517Z,86.90
2023-05-08T12:42:50.934Z,81.70
2023-05-08T12:45:27.111Z,84.40
2023-05-08T12:48:03.560Z,86.50
2023-05-08T12:50:41.970Z,87.30
2023-05-08T12:53:12.758Z,82.70
2023-05-08T12:55:53.622Z,81.70
2023-05-08T12:58:26.038Z,84.10
2023-05-08T13:01:02.944Z,85.60
2023-05-08T13:03:30.811Z,85.40
2023-05-08T13:05:58.971Z,85.60
2023-05-08T13:08:39.022Z,84.00
2023-05-08T13:11:07.050Z,84.30
2023-05-08T13:13:36.476Z,86.60
2023-05-08T13:16:06.174Z,87.30
2023-05-08T13:18:33.825Z,87.40
2023-05-08T13:21:02.024Z,89.00
2023-05-08T13:23:29.718Z,85.80
2023-05-08T13:25:56.867Z,84.20
2023-05-08T13:28:23.782Z,80.30
2023-05-08T13:30:50.731Z,80.60
2023-05-08T13:33:17.710Z,80.60
2023-05-08T13:35:44.634Z,81.80
2023-05-08T13:38:11.540Z,78.20
2023-05-08T13:40:38.462Z,78.60
2023-05-08T13:43:05.553Z,82.40
2023-05-08T13:45:32.951Z,78.30
2023-05-08T13:48:00.522Z,79.50
2023-05-08T13:50:27.616Z,72.50
2023-05-08T13:52:55.212Z,74.80
2023-05-08T13:55:23.528Z,72.30
2023-05-08T13:57:51.034Z,73.90
2023-05-08T14:00:18.623Z,76.20
2023-05-08T14:02:45.792Z,75.70
2023-05-08T14:05:13.286Z,75.90
2023-05-08T14:07:40.793Z,73.60
2023-05-08T14:10:08.247Z,74.80
2023-05-08T14:12:38.265Z,74.20
2023-05-08T14:15:06.178Z,72.60
2023-05-08T14:17:33.210Z,73.90
2023-05-08T14:20:00.562Z,73.60
2023-05-08T14:22:27.662Z,72.00
2023-05-08T14:24:54.588Z,69.20
2023-05-08T14:27:21.754Z,68.20
2023-05-08T14:29:49.189Z,68.10
2023-05-08T14:32:16.145Z,67.90
2023-05-08T14:34:43.021Z,69.20
2023-05-08T14:37:10.212Z,68.50
2023-05-08T14:39:37.178Z,68.00
2023-05-08T14:44:34.054Z,72.00
2023-05-08T14:47:01.215Z,73.00
2023-05-08T14:49:37.366Z,74.20
2023-05-08T14:52:05.556Z,73.20
2023-05-08T14:54:32.631Z,71.20
2023-05-08T14:56:59.862Z,71.90
2023-05-08T14:59:26.768Z,71.00
2023-05-08T15:01:53.799Z,68.90
2023-05-08T15:04:20.856Z,70.70
2023-05-08T15:06:47.855Z,70.80
2023-05-08T15:09:16.521Z,72.40
2023-05-08T15:11:43.748Z,72.70
2023-05-08T15:14:10.635Z,74.50
2023-05-08T15:16:37.609Z,74.80
2023-05-08T15:19:04.777Z,75.50
2023-05-08T15:21:31.775Z,78.50
2023-05-08T15:23:58.644Z,79.00
2023-05-08T15:26:25.670Z,82.10
2023-05-08T15:28:52.612Z,83.90
2023-05-08T15:31:19.630Z,84.20
2023-05-08T15:33:47.717Z,85.30
2023-05-08T15:36:14.928Z,86.90
2023-05-08T15:38:43.038Z,87.60
2023-05-08T15:41:14.582Z,89.20
2023-05-08T15:43:45.043Z,90.50
2023-05-08T15:46:13.255Z,91.20
2023-05-08T15:48:40.201Z,92.10
2023-05-08T15:51:07.161Z,91.90
2023-05-08T15:53:35.224Z,91.90
2023-05-08T15:56:02.009Z,92.80
2023-05-08T15:58:28.926Z,92.20
2023-05-08T16:00:56.880Z,92.80
2023-05-08T16:03:24.468Z,92.40
2023-05-08T16:05:51.467Z,92.40
2023-05-08T16:08:18.319Z,92.10
2023-05-08T16:10:45.246Z,91.80
2023-05-08T16:13:12.153Z,91.80
2023-05-08T16:15:39.169Z,91.50
2023-05-08T16:18:06.806Z,91.50
2023-05-08T16:20:36.054Z,91.90
2023-05-08T16:23:03.346Z,91.70
2023-05-08T16:25:30.360Z,91.80
2023-05-08T16:27:57.318Z,92.30
2023-05-08T16:30:26.495Z,92.50
2023-05-08T16:32:53.307Z,92.40
2023-05-08T16:35:20.362Z,92.70
2023-05-08T16:37:47.436Z,93.10
2023-05-08T16:40:14.509Z,93.40
2023-05-08T16:42:41.371Z,93.80
2023-05-08T16:45:09.054Z,93.90
2023-05-08T16:47:36.118Z,94.40
2023-05-08T16:50:04.906Z,94.60
2023-05-08T16:52:32.888Z,93.80
2023-05-08T16:55:00.564Z,94.20
2023-05-08T16:57:27.634Z,95.10
2023-05-08T16:59:54.611Z,96.30
2023-05-08T17:02:21.982Z,97.40
2023-05-08T17:04:49.833Z,97.90
2023-05-08T17:07:17.611Z,98.30
2023-05-08T17:09:45.205Z,98.60
2023-05-08T17:12:12.103Z,99.10
2023-05-08T17:14:40.264Z,99.50
2023-05-08T17:17:07.953Z,99.90
2023-05-08T17:19:34.929Z,99.90
2023-05-08T17:22:02.639Z,99.90
2023-05-08T17:24:30.904Z,99.90
2023-05-08T17:26:58.472Z,99.90
2023-05-08T17:29:25.362Z,99.90
2023-05-08T17:31:52.470Z,99.90
2023-05-08T17:34:19.437Z,99.90
2023-05-08T17:36:46.334Z,99.90
2023-05-08T17:39:13.304Z,99.90
2023-05-08T17:41:40.254Z,99.90
2023-05-08T17:44:07.296Z,99.90
2023-05-08T17:46:34.442Z,99.90
2023-05-08T17:49:01.361Z,99.90
2023-05-08T17:51:28.332Z,99.90
2023-05-08T17:53:56.817Z,99.90
2023-05-08T17:56:24.043Z,99.90
2023-05-08T17:58:52.540Z,99.90
2023-05-08T18:01:20.419Z,99.90
2023-05-08T18:03:48.381Z,99.90
2023-05-08T18:06:16.715Z,99.90
2023-05-08T18:08:45.541Z,99.90
2023-05-08T18:11:24.275Z,99.90
2023-05-08T18:13:53.278Z,99.90
2023-05-08T18:16:21.795Z,99.90
2023-05-08T18:18:49.825Z,99.90
2023-05-08T18:21:16.831Z,99.90
2023-05-08T18:23:43.862Z,99.90
2023-05-08T18:26:15.802Z,99.90
2023-05-08T18:28:43.817Z,99.90
2023-05-08T18:31:11.929Z,99.90
2023-05-08T18:33:39.182Z,99.90
2023-05-08T18:36:06.929Z,99.90
2023-05-08T18:38:34.900Z,99.90
2023-05-08T18:41:05.988Z,99.90
2023-05-08T18:43:33.517Z,99.90
2023-05-08T18:46:00.713Z,99.90
2023-05-08T18:48:27.857Z,99.90
2023-05-08T18:50:58.389Z,99.90
2023-05-08T18:53:25.576Z,99.90
2023-05-08T18:55:52.825Z,99.90
2023-05-08T18:58:19.716Z,99.90
2023-05-08T19:00:46.691Z,99.90
2023-05-08T19:03:13.843Z,99.90
2023-05-08T19:05:43.843Z,99.90
2023-05-08T19:08:10.734Z,99.90
2023-05-08T19:10:37.599Z,99.90
2023-05-08T19:13:04.605Z,99.90
2023-05-08T19:15:31.412Z,99.90
2023-05-08T19:17:58.369Z,99.90
2023-05-08T19:20:25.590Z,99.90
2023-05-08T19:22:52.464Z,99.90
2023-05-08T19:25:19.935Z,99.90
2023-05-08T19:27:46.919Z,99.90
2023-05-08T19:30:14.264Z,99.90
2023-05-08T19:32:41.554Z,99.90
2023-05-08T19:35:09.646Z,99.90
2023-05-08T19:37:37.748Z,99.90
2023-05-08T19:40:09.029Z,99.90
2023-05-08T19:42:35.868Z,99.90
2023-05-08T19:45:02.836Z,99.90
2023-05-08T19:47:29.701Z,99.90
2023-05-08T19:49:56.542Z,99.90
2023-05-08T19:52:23.510Z,99.90
2023-05-08T19:54:50.394Z,99.90
2023-05-08T19:57:17.393Z,99.90
2023-05-08T19:59:44.236Z,99.90
2023-05-08T20:02:11.205Z,99.90
2023-05-08T20:05:00.819Z,99.90
2023-05-08T20:07:24.855Z,99.90
2023-05-08T20:09:51.924Z,99.90
2023-05-08T20:12:18.799Z,99.90
2023-05-08T20:14:45.670Z,99.90
2023-05-08T20:17:13.148Z,99.90
2023-05-08T20:19:40.003Z,99.90
2023-05-08T20:22:07.022Z,99.90
2023-05-08T20:24:33.857Z,99.90
2023-05-08T20:27:00.845Z,99.90
2023-05-08T20:29:27.833Z,99.90
2023-05-08T20:31:54.760Z,99.90
2023-05-08T20:34:22.226Z,99.90
2023-05-08T20:36:49.260Z,99.90
2023-05-08T20:39:16.441Z,99.90
2023-05-08T20:41:43.371Z,99.90
2023-05-08T20:44:12.280Z,99.90
2023-05-08T20:46:40.637Z,99.90
2023-05-08T20:49:07.593Z,99.90
2023-05-08T20:51:36.184Z,99.90
2023-05-08T20:54:03.305Z,99.90
2023-05-08T20:56:30.358Z,99.90
2023-05-08T20:58:57.220Z,99.90
2023-05-08T21:01:24.126Z,99.90
2023-05-08T21:03:51.044Z,99.90
2023-05-08T21:06:17.856Z,99.90
2023-05-08T21:08:44.692Z,99.90
2023-05-08T21:11:12.468Z,99.90
2023-05-08T21:13:39.346Z,99.90
2023-05-08T21:16:07.411Z,99.90
2023-05-08T21:18:34.277Z,99.90
2023-05-08T21:21:01.171Z,99.90
2023-05-08T21:23:31.075Z,99.90
2023-05-08T21:25:57.883Z,99.90
2023-05-08T21:28:24.747Z,99.90
2023-05-08T21:30:51.592Z,99.90
2023-05-08T21:33:18.644Z,99.90
2023-05-08T21:35:46.693Z,99.90
2023-05-08T21:38:13.597Z,99.90
2023-05-08T21:40:40.558Z,99.90
2023-05-08T21:43:07.702Z,99.90
2023-05-08T21:45:35.155Z,99.90
2023-05-08T21:48:03.097Z,99.90
2023-05-08T21:50:30.338Z,99.90
2023-05-08T21:52:57.202Z,99.90
2023-05-08T21:55:24.651Z,99.90
2023-05-08T21:57:52.013Z,99.90
2023-05-08T22:00:19.979Z,99.90
2023-05-08T22:02:47.087Z,99.90
2023-05-08T22:05:14.456Z,99.90
2023-05-08T22:07:41.886Z,99.90
2023-05-08T22:10:10.434Z,99.90
2023-05-08T22:12:37.536Z,99.90
2023-05-08T22:15:17.905Z,99.90
2023-05-08T22:17:50.518Z,99.90
2023-05-08T22:20:18.040Z,99.90
2023-05-08T22:22:45.291Z,99.90
2023-05-08T22:25:12.456Z,99.90
2023-05-08T22:27:39.559Z,99.90
2023-05-08T22:30:07.703Z,99.90
2023-05-08T22:32:35.014Z,99.90
2023-05-08T22:35:01.931Z,99.90
2023-05-08T22:37:29.844Z,99.90
2023-05-08T22:39:56.690Z,99.90
2023-05-08T22:42:24.440Z,99.90
2023-05-08T22:44:51.432Z,99.90
2023-05-08T22:47:18.370Z,99.90
2023-05-08T22:49:45.299Z,99.90
2023-05-08T22:52:12.308Z,99.90
2023-05-08T22:54:39.136Z,99.90
2023-05-08T22:57:06.072Z,99.90
2023-05-08T22:59:33.023Z,99.90
2023-05-08T23:02:00.382Z,99.90
2023-05-08T23:04:27.271Z,99.90
2023-05-08T23:06:57.174Z,99.90
2023-05-08T23:09:24.080Z,99.90
2023-05-08T23:11:51.292Z,99.90
2023-05-08T23:14:18.218Z,99.90
2023-05-08T23:16:45.134Z,99.90
2023-05-08T23:19:11.990Z,99.90
2023-05-08T23:21:38.772Z,99.90
2023-05-08T23:24:06.044Z,99.90
2023-05-08T23:26:32.886Z,99.90
2023-05-08T23:28:59.842Z,99.90
2023-05-08T23:31:26.886Z,99.90
2023-05-08T23:33:53.922Z,99.90
2023-05-08T23:36:20.805Z,99.90
2023-05-08T23:38:47.927Z,99.90
2023-05-08T23:41:14.828Z,99.90
2023-05-08T23:43:41.966Z,99.90
2023-05-08T23:46:09.720Z,99.90
2023-05-08T23:48:36.622Z,99.90
2023-05-08T23:51:03.630Z,99.90
2023-05-08T23:53:30.433Z,99.90
2023-05-08T23:55:57.664Z,99.90
2023-05-08T23:58:24.495Z,99.90
